createdAt,value
2023-03-30T00:04:34.885Z,10.40
2023-03-30T00:14:03.161Z,11.50
2023-03-30T00:19:03.397Z,16.80
2023-03-30T00:23:53.095Z,10.20
2023-03-30T00:28:52.611Z,13.50
2023-03-30T00:33:55.682Z,14.40
2023-03-30T00:39:12.745Z,14.60
2023-03-30T00:44:15.750Z,29.20
2023-03-30T00:49:18.203Z,37.10
2023-03-30T00:54:44.455Z,36.20
2023-03-30T00:59:25.459Z,22.30
2023-03-30T01:04:11.704Z,7.80
2023-03-30T01:13:49.672Z,6.10
2023-03-30T01:29:21.817Z,4.40
2023-03-30T01:33:44.787Z,6.90
2023-03-30T01:38:30.817Z,3.30
2023-03-30T01:48:25.328Z,8.70
2023-03-30T01:58:07.432Z,6.90
2023-03-30T02:02:36.786Z,8.30
2023-03-30T02:07:20.734Z,4.00
2023-03-30T02:12:30.773Z,4.60
2023-03-30T02:17:43.262Z,3.20
2023-03-30T02:22:12.513Z,4.20
2023-03-30T02:26:41.749Z,6.70
2023-03-30T02:31:18.970Z,29.60
2023-03-30T02:35:54.416Z,23.60
2023-03-30T02:40:58.036Z,19.60
2023-03-30T02:46:17.541Z,19.40
2023-03-30T02:51:10.817Z,19.90
2023-03-30T02:56:06.605Z,18.20
2023-03-30T03:20:26.525Z,5.40
2023-03-30T03:25:36.252Z,3.90
2023-03-30T03:30:09.856Z,5.40
2023-03-30T03:34:54.394Z,7.50
2023-03-30T03:40:19.531Z,5.30
2023-03-30T03:44:50.966Z,3.20
2023-03-30T03:49:14.801Z,2.90
2023-03-30T03:54:15.784Z,2.50
2023-03-30T03:58:48.476Z,3.00
2023-03-30T04:03:52.340Z,4.40
2023-03-30T04:08:15.873Z,6.60
2023-03-30T04:12:42.004Z,4.70
2023-03-30T04:17:29.723Z,6.20
2023-03-30T04:21:52.895Z,5.40
2023-03-30T04:27:06.467Z,5.20
2023-03-30T04:32:08.965Z,4.40
2023-03-30T04:37:06.476Z,11.30
2023-03-30T04:42:18.611Z,8.80
2023-03-30T04:47:07.948Z,8.70
2023-03-30T04:52:00.524Z,11.20
2023-03-30T04:57:16.704Z,11.80
2023-03-30T05:02:18.125Z,17.80
2023-03-30T05:07:45.548Z,26.50
2023-03-30T05:12:28.610Z,19.20
2023-03-30T05:17:04.295Z,21.10
2023-03-30T05:21:41.987Z,17.00
2023-03-30T05:26:31.843Z,15.70
2023-03-30T05:31:07.105Z,16.10
2023-03-30T05:35:46.122Z,15.20
2023-03-30T05:40:28.120Z,19.40
2023-03-30T05:45:18.045Z,35.60
2023-03-30T05:50:06.845Z,36.40
2023-03-30T05:54:57.641Z,35.40
2023-03-30T06:00:15.121Z,32.70
2023-03-30T06:05:14.882Z,15.70
2023-03-30T06:10:11.053Z,15.80
2023-03-30T06:15:12.255Z,18.70
2023-03-30T06:20:00.691Z,17.50
2023-03-30T06:24:25.054Z,13.20
2023-03-30T06:29:09.008Z,13.30
2023-03-30T06:34:21.561Z,9.80
2023-03-30T06:44:28.068Z,16.60
2023-03-30T06:59:34.723Z,17.10
2023-03-30T07:04:26.307Z,17.50
2023-03-30T07:09:20.574Z,10.80
2023-03-30T07:13:46.279Z,10.80
2023-03-30T07:18:27.237Z,10.70
2023-03-30T07:27:57.921Z,8.90
2023-03-30T07:32:27.935Z,7.10
2023-03-30T07:36:56.990Z,8.00
2023-03-30T07:41:33.030Z,11.40
2023-03-30T07:45:59.348Z,6.60
2023-03-30T07:50:32.752Z,6.70
2023-03-30T07:54:59.502Z,9.60
2023-03-30T07:59:25.313Z,8.10
2023-03-30T08:03:49.318Z,8.20
2023-03-30T08:08:39.117Z,8.30
2023-03-30T08:13:19.790Z,10.90
2023-03-30T08:17:45.350Z,10.20
2023-03-30T08:22:35.095Z,12.40
2023-03-30T08:27:04.833Z,11.10
2023-03-30T08:31:45.806Z,13.60
2023-03-30T08:36:09.984Z,10.50
2023-03-30T08:40:54.290Z,9.80
2023-03-30T08:45:44.157Z,9.60
2023-03-30T08:50:18.023Z,14.50
2023-03-30T08:54:59.519Z,9.30
2023-03-30T09:00:08.224Z,10.40
2023-03-30T09:04:54.210Z,7.10
2023-03-30T09:09:27.397Z,7.60
2023-03-30T09:14:23.960Z,10.20
2023-03-30T09:24:43.470Z,7.10
2023-03-30T09:29:12.121Z,10.30
2023-03-30T09:45:17.013Z,11.70
2023-03-30T09:49:52.332Z,8.80
2023-03-30T09:54:23.106Z,11.70
2023-03-30T09:59:09.445Z,14.40
2023-03-30T10:03:49.486Z,11.20
2023-03-30T10:12:31.590Z,10.70
2023-03-30T10:17:12.284Z,9.30
2023-03-30T10:21:50.861Z,10.20
2023-03-30T10:26:14.797Z,15.80
2023-03-30T10:30:42.763Z,13.30
2023-03-30T10:35:19.908Z,8.40
2023-03-30T10:39:48.266Z,11.50
2023-03-30T10:44:21.372Z,13.10
2023-03-30T10:49:06.503Z,8.80
2023-03-30T10:53:59.656Z,9.00
2023-03-30T10:58:37.470Z,13.40
2023-03-30T11:03:44.434Z,10.50
2023-03-30T11:14:14.047Z,11.30
2023-03-30T11:19:24.565Z,9.40
2023-03-30T11:24:45.409Z,10.30
2023-03-30T11:29:41.998Z,11.40
2023-03-30T11:34:54.954Z,11.20
2023-03-30T11:40:04.310Z,11.70
2023-03-30T11:44:57.810Z,12.90
2023-03-30T11:50:11.256Z,13.90
2023-03-30T11:55:27.326Z,10.40
2023-03-30T12:00:50.126Z,9.90
2023-03-30T12:06:10.944Z,8.90
2023-03-30T12:21:49.926Z,12.70
2023-03-30T12:31:55.706Z,7.70
2023-03-30T12:37:14.370Z,13.30
2023-03-30T12:42:21.234Z,12.40
2023-03-30T12:52:30.387Z,9.70
2023-03-30T12:58:01.397Z,8.60
2023-03-30T13:03:22.356Z,13.00
2023-03-30T13:08:39.238Z,14.40
2023-03-30T13:13:34.788Z,12.90
2023-03-30T13:19:04.423Z,9.80
2023-03-30T13:24:21.474Z,8.70
2023-03-30T13:29:44.559Z,14.20
2023-03-30T13:35:06.648Z,22.80
2023-03-30T13:40:31.258Z,14.50
2023-03-30T13:45:29.398Z,25.20
2023-03-30T13:50:54.113Z,36.50
2023-03-30T13:56:10.212Z,12.40
2023-03-30T14:01:44.685Z,21.20
2023-03-30T14:11:53.950Z,8.60
2023-03-30T14:22:17.332Z,11.80
2023-03-30T14:33:14.484Z,12.00
2023-03-30T14:48:53.482Z,16.00
2023-03-30T14:54:19.786Z,10.00
2023-03-30T14:59:18.575Z,8.50
2023-03-30T15:04:31.404Z,9.90
2023-03-30T15:09:44.464Z,15.00
2023-03-30T15:15:03.540Z,13.10
2023-03-30T15:20:18.072Z,16.40
2023-03-30T15:25:34.302Z,16.70
2023-03-30T15:30:53.553Z,13.00
2023-03-30T15:41:58.165Z,13.10
2023-03-30T16:26:29.848Z,11.30
2023-03-30T17:43:38.916Z,11.60
2023-03-30T18:11:46.087Z,10.80
2023-03-30T18:40:04.232Z,20.80
2023-03-30T19:30:27.844Z,13.40
